Time;durP1;ratioP1;P1;durP2;ratioP2;P2;SDS_P1;SDS_P2;PMS_P1;PMS_P2;Temp;Humidity;BMP_temperature;BMP_pressure;BME280_temperature;BME280_humidity;BME280_pressure;Samples;Min_cycle;Max_cycle;Signal;HPM_P1;HPM_P2
2021/04/02 00:02:00;;;;;;;0.30;0.20;;;;;;;10.72;77.58;100678.97;5044644;28;20496;-54
2021/04/02 00:04:26;;;;;;;0.30;0.20;;;;;;;10.88;76.81;100692.78;5034953;28;20509;-53
2021/04/02 00:06:53;;;;;;;0.30;0.20;;;;;;;10.36;78.29;100691.28;5044597;28;20458;-54
2021/04/02 00:09:19;;;;;;;0.30;0.20;;;;;;;10.29;78.31;100695.84;5046462;28;20454;-54
2021/04/02 00:11:45;;;;;;;0.30;0.20;;;;;;;10.10;79.33;100689.13;5041573;28;20439;-54
2021/04/02 00:14:11;;;;;;;0.30;0.20;;;;;;;10.28;78.89;100698.50;5039764;28;20510;-54
2021/04/02 00:16:37;;;;;;;0.30;0.20;;;;;;;10.41;76.61;100702.66;5044422;28;20452;-54
2021/04/02 00:19:04;;;;;;;0.30;0.20;;;;;;;10.61;74.26;100711.09;5045854;28;20458;-53
2021/04/02 00:21:31;;;;;;;0.30;0.20;;;;;;;10.74;72.64;100695.75;5041444;28;20494;-54
2021/04/02 00:23:57;;;;;;;0.30;0.20;;;;;;;10.50;73.16;100701.59;5039608;28;20502;-54
2021/04/02 00:26:24;;;;;;;0.30;0.20;;;;;;;10.42;73.29;100706.22;5043626;28;20447;-55
2021/04/02 00:28:53;;;;;;;0.30;0.20;;;;;;;10.44;73.32;100701.75;5045866;28;20474;-54
2021/04/02 00:31:19;;;;;;;0.30;0.20;;;;;;;10.34;73.14;100704.59;5041166;28;20467;-54
2021/04/02 00:33:46;;;;;;;0.30;0.20;;;;;;;10.35;73.09;100692.19;5038850;28;20956;-54
2021/04/02 00:36:12;;;;;;;0.30;0.20;;;;;;;10.13;73.46;100707.66;5042667;28;20451;-54
2021/04/02 00:38:39;;;;;;;0.30;0.20;;;;;;;10.04;73.29;100705.19;5042542;28;20453;-53
2021/04/02 00:41:08;;;;;;;0.30;0.20;;;;;;;10.05;73.22;100699.84;5032741;28;20600;-54
2021/04/02 00:43:39;;;;;;;0.30;0.20;;;;;;;10.07;72.78;100699.81;5039193;28;20940;-54
2021/04/02 00:46:07;;;;;;;0.30;0.20;;;;;;;9.94;73.41;100701.84;5042810;28;20497;-54
2021/04/02 00:48:34;;;;;;;0.30;0.20;;;;;;;10.05;72.96;100705.16;5041004;28;20505;-54
2021/04/02 00:51:04;;;;;;;0.30;0.20;;;;;;;9.98;72.74;100702.63;5045568;28;20588;-54
2021/04/02 00:53:34;;;;;;;0.30;0.20;;;;;;;9.89;73.36;100710.81;5038967;28;20521;-54
2021/04/02 00:56:01;;;;;;;0.30;0.20;;;;;;;9.64;74.47;100705.94;5044899;28;20451;-54
2021/04/02 00:58:29;;;;;;;0.30;0.20;;;;;;;9.85;73.91;100711.75;5038583;28;20794;-54
2021/04/02 01:00:56;;;;;;;0.30;0.20;;;;;;;9.67;74.57;100711.19;5039291;28;20495;-57
2021/04/02 01:03:23;;;;;;;0.30;0.20;;;;;;;9.71;74.18;100733.22;5045822;28;20471;-57
2021/04/02 01:05:52;;;;;;;0.30;0.20;;;;;;;9.59;74.44;100725.47;5045599;28;20506;-57
2021/04/02 01:08:26;;;;;;;0.40;0.30;;;;;;;9.50;75.16;100721.22;5025863;28;20500;-57
2021/04/02 01:10:56;;;;;;;0.30;0.20;;;;;;;9.31;75.18;100717.13;5038588;28;20498;-57
2021/04/02 01:13:29;;;;;;;0.30;0.20;;;;;;;9.41;75.14;100722.25;5044419;28;20498;-56
2021/04/02 01:16:01;;;;;;;0.30;0.20;;;;;;;9.08;75.31;100721.03;5045284;28;20817;-57
2021/04/02 01:18:38;;;;;;;0.30;0.20;;;;;;;9.03;76.17;100721.97;5041908;28;20501;-57
2021/04/02 01:21:14;;;;;;;0.30;0.20;;;;;;;9.11;75.28;100728.94;5038395;28;20486;-57
2021/04/02 01:24:10;;;;;;;0.40;0.20;;;;;;;9.02;75.65;100726.41;5039042;28;20443;-57
2021/04/02 01:26:58;;;;;;;0.30;0.20;;;;;;;9.15;74.21;100730.63;5017320;28;20819;-57
2021/04/02 01:29:30;;;;;;;0.30;0.20;;;;;;;9.26;74.15;100727.81;5038563;28;20469;-57
2021/04/02 01:32:00;;;;;;;0.30;0.20;;;;;;;9.29;74.08;100725.09;5038863;28;20436;-57
2021/04/02 01:34:35;;;;;;;0.30;0.20;;;;;;;9.34;73.21;100722.41;5042141;28;20943;-57
2021/04/02 01:37:06;;;;;;;0.30;0.20;;;;;;;9.33;72.75;100725.97;5042606;28;20498;-57
2021/04/02 01:39:35;;;;;;;0.30;0.20;;;;;;;9.04;73.12;100734.34;5022534;28;20464;-56
2021/04/02 01:42:04;;;;;;;2.57;2.30;;;;;;;9.05;74.25;100736.13;5044915;28;20910;-57
2021/04/02 01:44:35;;;;;;;0.40;0.20;;;;;;;9.16;72.83;100747.41;5043462;28;20481;-57
2021/04/02 01:47:03;;;;;;;0.50;0.50;;;;;;;9.26;73.40;100734.91;5028802;28;20455;-57
2021/04/02 01:49:31;;;;;;;0.30;0.20;;;;;;;9.65;72.56;100741.31;5044692;28;20467;-58
2021/04/02 01:51:58;;;;;;;0.37;0.30;;;;;;;9.06;73.13;100752.00;5038168;28;20442;-57
2021/04/02 01:54:25;;;;;;;0.30;0.20;;;;;;;8.88;74.12;100747.81;5032376;28;20506;-59
2021/04/02 01:56:53;;;;;;;0.30;0.20;;;;;;;8.86;74.16;100752.28;5044982;28;20457;-57
2021/04/02 01:59:22;;;;;;;0.30;0.20;;;;;;;9.02;74.74;100752.94;5045255;28;20485;-57
2021/04/02 02:01:50;;;;;;;0.30;0.20;;;;;;;8.79;74.76;100755.06;5026234;28;20499;-57
2021/04/02 02:04:22;;;;;;;0.30;0.20;;;;;;;8.85;74.53;100744.34;5038690;28;20455;-58
2021/04/02 02:06:53;;;;;;;0.30;0.20;;;;;;;9.37;71.86;100739.13;5043100;28;20455;-58
2021/04/02 02:09:26;;;;;;;0.30;0.20;;;;;;;8.91;73.38;100749.59;5044947;28;20447;-58
2021/04/02 02:11:57;;;;;;;0.30;0.20;;;;;;;9.29;73.28;100743.66;5045020;28;20981;-58
2021/04/02 02:14:26;;;;;;;0.30;0.20;;;;;;;9.28;72.71;100744.56;5041669;28;20453;-58
2021/04/02 02:16:55;;;;;;;0.30;0.20;;;;;;;9.12;72.85;100743.94;5042941;28;20866;-57
2021/04/02 02:19:25;;;;;;;0.30;0.20;;;;;;;8.95;74.31;100740.69;5048575;28;20467;-58
2021/04/02 02:21:54;;;;;;;0.30;0.20;;;;;;;8.73;74.33;100749.81;5046630;28;20486;-58
2021/04/02 02:24:21;;;;;;;0.30;0.20;;;;;;;8.75;75.25;100737.41;5041539;28;20496;-57
2021/04/02 02:26:47;;;;;;;0.30;0.20;;;;;;;8.61;75.24;100733.19;5042686;28;20452;-57
2021/04/02 02:29:14;;;;;;;0.30;0.20;;;;;;;8.59;76.01;100732.34;5048118;28;20463;-58
2021/04/02 02:31:41;;;;;;;0.30;0.20;;;;;;;8.56;76.58;100735.03;5047214;28;20469;-58
2021/04/02 02:34:08;;;;;;;0.30;0.20;;;;;;;8.57;76.74;100747.38;5040115;28;20453;-58
2021/04/02 02:36:35;;;;;;;0.40;0.30;;;;;;;8.14;78.00;100748.78;5041882;28;20937;-57
2021/04/02 02:39:10;;;;;;;0.30;0.20;;;;;;;8.09;78.69;100747.97;5041387;28;20453;-58
2021/04/02 02:41:37;;;;;;;0.30;0.20;;;;;;;7.75;81.03;100748.28;5042309;28;20539;-58
2021/04/02 02:44:04;;;;;;;0.30;0.20;;;;;;;7.75;81.15;100750.06;5041434;28;20451;-57
2021/04/02 02:46:30;;;;;;;0.30;0.20;;;;;;;7.80;80.69;100751.75;5035831;28;20456;-58
2021/04/02 02:49:04;;;;;;;0.60;0.57;;;;;;;8.12;80.44;100743.50;5042609;28;20454;-57
2021/04/02 02:51:32;;;;;;;0.30;0.20;;;;;;;7.97;79.91;100748.97;5041228;28;20440;-58
2021/04/02 02:54:02;;;;;;;0.30;0.20;;;;;;;8.03;81.36;100748.88;5038037;28;20463;-58
2021/04/02 02:56:31;;;;;;;0.30;0.20;;;;;;;8.17;80.40;100743.44;5048042;28;20464;-58
2021/04/02 02:59:00;;;;;;;0.30;0.20;;;;;;;8.20;80.08;100748.69;5043649;28;20939;-58
2021/04/02 03:01:29;;;;;;;0.30;0.20;;;;;;;8.08;81.01;100748.81;5040336;28;20486;-58
2021/04/02 03:03:57;;;;;;;0.30;0.20;;;;;;;8.03;79.88;100749.75;5043062;28;20501;-58
2021/04/02 03:06:25;;;;;;;0.30;0.20;;;;;;;8.21;79.82;100747.78;5047411;28;20936;-57
2021/04/02 03:08:53;;;;;;;0.30;0.20;;;;;;;8.11;79.92;100752.34;5046432;28;20513;-57
2021/04/02 03:11:21;;;;;;;0.30;0.20;;;;;;;7.93;80.22;100750.75;5040343;28;20991;-57
2021/04/02 03:13:49;;;;;;;0.30;0.20;;;;;;;7.52;81.74;100744.97;5041310;28;20933;-57
2021/04/02 03:16:18;;;;;;;0.30;0.20;;;;;;;7.38;83.57;100750.38;5047381;28;20452;-57
2021/04/02 03:18:47;;;;;;;0.30;0.20;;;;;;;7.15;83.38;100745.28;5047274;28;20974;-58
2021/04/02 03:21:14;;;;;;;0.30;0.20;;;;;;;7.32;83.90;100742.50;5027000;28;20526;-58
2021/04/02 03:23:43;;;;;;;0.30;0.20;;;;;;;6.91;83.76;100751.59;5039029;28;20451;-57
2021/04/02 03:26:10;;;;;;;0.30;0.20;;;;;;;6.60;85.00;100750.03;5046278;28;20493;-57
2021/04/02 03:28:37;;;;;;;0.30;0.20;;;;;;;6.82;85.61;100746.38;5047370;28;20447;-58
2021/04/02 03:31:04;;;;;;;0.30;0.20;;;;;;;7.33;83.19;100737.19;5042096;28;20498;-57
2021/04/02 03:33:33;;;;;;;0.30;0.20;;;;;;;7.39;82.63;100730.97;5040742;28;20452;-58
2021/04/02 03:36:02;;;;;;;0.30;0.20;;;;;;;7.56;82.36;100736.13;5045102;28;20510;-58
2021/04/02 03:38:36;;;;;;;0.30;0.20;;;;;;;7.70;81.12;100742.19;5045411;28;20450;-57
2021/04/02 03:41:07;;;;;;;0.30;0.20;;;;;;;7.55;81.46;100747.59;5042164;28;20498;-57
2021/04/02 03:43:36;;;;;;;0.30;0.20;;;;;;;7.77;81.44;100749.16;5040053;28;20863;-57
2021/04/02 03:46:04;;;;;;;0.30;0.20;;;;;;;7.82;80.02;100749.13;5041293;28;20452;-58
2021/04/02 03:48:35;;;;;;;0.30;0.20;;;;;;;7.77;80.72;100751.78;5035005;28;20451;-58
2021/04/02 03:51:04;;;;;;;0.30;0.20;;;;;;;7.46;82.05;100752.97;5042063;28;20476;-57
2021/04/02 03:53:36;;;;;;;0.30;0.20;;;;;;;7.09;82.76;100750.59;5038774;28;20502;-58
2021/04/02 03:56:06;;;;;;;0.80;0.77;;;;;;;7.46;82.18;100745.03;5045704;28;20454;-58
2021/04/02 03:58:32;;;;;;;0.30;0.20;;;;;;;7.60;80.74;100748.44;5038235;28;20982;-58
2021/04/02 04:01:01;;;;;;;0.30;0.20;;;;;;;7.64;79.58;100756.31;5039506;28;20495;-58
2021/04/02 04:03:28;;;;;;;0.30;0.20;;;;;;;6.88;82.31;100754.28;5046102;28;20594;-58
2021/04/02 04:05:59;;;;;;;0.30;0.20;;;;;;;6.79;83.24;100763.13;5047315;28;20528;-57
2021/04/02 04:08:26;;;;;;;0.30;0.20;;;;;;;6.61;85.12;100751.78;5044969;28;20448;-57
2021/04/02 04:10:54;;;;;;;0.30;0.20;;;;;;;6.82;84.24;100751.66;5046619;28;20478;-57
2021/04/02 04:13:23;;;;;;;0.30;0.20;;;;;;;7.40;82.51;100748.59;5042183;28;20520;-57
2021/04/02 04:15:50;;;;;;;0.30;0.20;;;;;;;7.49;80.81;100758.22;5039409;28;20451;-57
2021/04/02 04:18:18;;;;;;;0.30;0.20;;;;;;;7.37;81.46;100757.44;5044088;28;20822;-57
2021/04/02 04:20:45;;;;;;;0.30;0.20;;;;;;;7.41;81.57;100748.59;5045941;28;20494;-58
2021/04/02 04:23:12;;;;;;;0.30;0.20;;;;;;;7.45;80.70;100759.16;5035349;28;20486;-58
2021/04/02 04:25:39;;;;;;;0.30;0.20;;;;;;;7.51;80.69;100759.97;5046083;28;20454;-58
2021/04/02 04:28:07;;;;;;;0.30;0.20;;;;;;;7.01;81.82;100757.72;5042230;28;20520;-58
2021/04/02 04:30:35;;;;;;;0.30;0.20;;;;;;;6.96;83.18;100760.38;5038998;28;20475;-58
2021/04/02 04:33:02;;;;;;;0.30;0.20;;;;;;;7.01;82.60;100760.34;5042341;28;20459;-58
2021/04/02 04:35:30;;;;;;;0.30;0.20;;;;;;;6.70;82.82;100755.22;5046015;28;20455;-58
2021/04/02 04:37:57;;;;;;;0.30;0.23;;;;;;;6.38;84.41;100755.41;5042669;28;20978;-57
2021/04/02 04:40:25;;;;;;;0.30;0.20;;;;;;;6.36;85.74;100756.28;5025583;28;20513;-57
2021/04/02 04:42:56;;;;;;;0.30;0.20;;;;;;;6.17;86.21;100751.09;5040653;28;20451;-58
2021/04/02 04:45:24;;;;;;;0.30;0.20;;;;;;;6.01;86.48;100749.34;5045479;28;20800;-58
2021/04/02 04:47:51;;;;;;;0.30;0.20;;;;;;;5.98;86.93;100759.03;5028669;28;20463;-58
2021/04/02 04:50:18;;;;;;;0.30;0.20;;;;;;;5.80;87.43;100759.94;5045353;28;20898;-57
2021/04/02 04:52:52;;;;;;;0.30;0.20;;;;;;;5.60;87.68;100763.44;5039074;28;20452;-58
2021/04/02 04:55:20;;;;;;;0.30;0.20;;;;;;;5.65;87.52;100755.56;5026500;28;20540;-58
2021/04/02 04:57:49;;;;;;;0.30;0.20;;;;;;;5.52;88.09;100759.09;5038591;28;20804;-57
2021/04/02 05:00:17;;;;;;;0.30;0.20;;;;;;;5.58;87.99;100751.16;5044469;28;20502;-57
2021/04/02 05:02:45;;;;;;;0.30;0.20;;;;;;;5.50;87.45;100756.44;5045247;28;20486;-57
2021/04/02 05:05:19;;;;;;;0.30;0.20;;;;;;;5.41;88.40;100756.44;5039186;28;20520;-57
2021/04/02 05:07:48;;;;;;;0.30;0.20;;;;;;;5.25;88.54;100759.97;5038820;28;20453;-57
2021/04/02 05:10:16;;;;;;;0.30;0.20;;;;;;;5.09;89.43;100769.59;5042803;28;20476;-58
2021/04/02 05:12:45;;;;;;;0.30;0.20;;;;;;;5.22;89.39;100763.47;5045668;28;20805;-58
2021/04/02 05:15:19;;;;;;;0.30;0.20;;;;;;;5.22;89.29;100770.50;5041949;28;20533;-57
2021/04/02 05:17:51;;;;;;;0.30;0.20;;;;;;;5.35;88.97;100774.91;5037609;28;20438;-57
2021/04/02 05:20:19;;;;;;;0.30;0.20;;;;;;;5.77;89.01;100765.22;5040263;28;20848;-57
2021/04/02 05:22:46;;;;;;;0.30;0.20;;;;;;;6.19;87.54;100769.56;5045192;28;20542;-58
2021/04/02 05:25:13;;;;;;;0.30;0.20;;;;;;;6.39;86.56;100778.28;5043942;28;20481;-58
2021/04/02 05:27:39;;;;;;;0.30;0.20;;;;;;;6.51;86.72;100774.72;5038692;28;20458;-57
2021/04/02 05:30:06;;;;;;;0.30;0.20;;;;;;;6.98;85.42;100773.56;5039726;28;20475;-57
2021/04/02 05:32:32;;;;;;;0.30;0.20;;;;;;;7.01;84.93;100779.75;5045443;28;20865;-58
2021/04/02 05:34:58;;;;;;;0.30;0.20;;;;;;;7.20;84.25;100780.47;5044526;28;20481;-57
2021/04/02 05:37:24;;;;;;;0.30;0.20;;;;;;;7.31;83.22;100780.41;5038199;28;20447;-57
2021/04/02 05:39:50;;;;;;;0.30;0.20;;;;;;;7.27;82.88;100782.22;5026123;28;20469;-57
2021/04/02 05:42:22;;;;;;;0.40;0.30;;;;;;;7.40;82.65;100777.69;5037743;28;20494;-57
2021/04/02 05:44:51;;;;;;;0.30;0.20;;;;;;;7.44;81.83;100790.00;5039636;28;20477;-57
2021/04/02 05:47:18;;;;;;;0.30;0.20;;;;;;;7.40;82.70;100786.53;5044099;28;20455;-58
2021/04/02 05:49:45;;;;;;;0.30;0.20;;;;;;;7.45;81.68;100789.13;5049143;28;20483;-58
2021/04/02 05:52:12;;;;;;;0.30;0.20;;;;;;;7.53;81.55;100787.28;5043774;28;20450;-57
2021/04/02 05:54:43;;;;;;;0.30;0.20;;;;;;;7.55;81.97;100796.09;5033254;28;20812;-57
2021/04/02 05:57:09;;;;;;;0.30;0.20;;;;;;;7.45;82.15;100790.88;5047413;28;20448;-57
2021/04/02 05:59:38;;;;;;;0.30;0.20;;;;;;;7.62;82.06;100794.25;5048469;28;20470;-56
2021/04/02 06:02:04;;;;;;;0.30;0.20;;;;;;;7.64;81.78;100797.78;5044566;28;20536;-56
2021/04/02 06:04:31;;;;;;;0.30;0.20;;;;;;;7.68;82.03;100794.22;5041722;28;20447;-56
2021/04/02 06:06:57;;;;;;;0.30;0.20;;;;;;;7.66;81.66;100801.28;5046559;28;20455;-56
2021/04/02 06:09:24;;;;;;;0.30;0.20;;;;;;;7.78;80.96;100803.81;5046892;28;20520;-57
2021/04/02 06:11:51;;;;;;;0.30;0.20;;;;;;;7.73;80.51;100809.16;5044419;28;20493;-57
2021/04/02 06:14:17;;;;;;;0.30;0.20;;;;;;;7.76;81.34;100808.25;5041787;28;20574;-57
2021/04/02 06:16:50;;;;;;;0.30;0.20;;;;;;;7.83;80.72;100802.03;5045339;28;20447;-56
2021/04/02 06:19:17;;;;;;;0.30;0.20;;;;;;;7.81;80.22;100808.19;5048420;28;20447;-56
2021/04/02 06:21:46;;;;;;;0.30;0.20;;;;;;;7.76;80.46;100807.38;5045590;28;20895;-56
2021/04/02 06:24:14;;;;;;;0.30;0.20;;;;;;;7.83;80.54;100811.75;5040025;28;20573;-57
2021/04/02 06:26:56;;;;;;;0.30;0.20;;;;;;;7.70;81.91;100803.03;5044167;28;20481;-57
2021/04/02 06:29:25;;;;;;;0.30;0.20;;;;;;;7.82;81.39;100807.34;5048097;28;21037;-57
2021/04/02 06:31:51;;;;;;;0.30;0.20;;;;;;;7.80;82.02;100804.69;5047103;28;20464;-57
2021/04/02 06:34:20;;;;;;;0.30;0.20;;;;;;;8.07;81.98;100806.19;5034660;28;20455;-57
2021/04/02 06:36:49;;;;;;;0.30;0.20;;;;;;;8.13;81.95;100810.56;5034950;28;20456;-57
2021/04/02 06:39:16;;;;;;;0.30;0.20;;;;;;;8.10;80.95;100814.13;5046584;28;20444;-57
2021/04/02 06:41:42;;;;;;;0.30;0.20;;;;;;;8.07;80.74;100818.53;5048249;28;20486;-57
2021/04/02 06:44:09;;;;;;;0.30;0.20;;;;;;;8.12;81.05;100820.28;5043243;28;20504;-57
2021/04/02 06:46:38;;;;;;;0.30;0.20;;;;;;;8.20;81.37;100814.88;5041232;28;20463;-57
2021/04/02 06:49:08;;;;;;;0.33;0.23;;;;;;;7.94;80.80;100815.13;5054186;28;20496;-57
2021/04/02 06:51:40;;;;;;;0.30;0.20;;;;;;;8.07;80.77;100815.91;5040012;28;20450;-57
2021/04/02 06:54:27;;;;;;;0.30;0.20;;;;;;;8.12;79.87;100819.41;5046879;28;20940;-57
2021/04/02 06:57:09;;;;;;;0.30;0.20;;;;;;;8.18;80.31;100814.91;5041067;28;20434;-56
2021/04/02 06:59:35;;;;;;;0.30;0.20;;;;;;;8.24;80.55;100820.16;5038856;28;20479;-57
2021/04/02 07:02:04;;;;;;;0.30;0.20;;;;;;;8.14;80.59;100821.13;5043705;23;20480;-56
2021/04/02 07:04:32;;;;;;;0.80;0.80;;;;;;;8.30;80.40;100829.78;5053716;28;20444;-56
2021/04/02 07:07:02;;;;;;;0.30;0.20;;;;;;;8.25;80.36;100828.97;5065230;28;20458;-56
2021/04/02 07:09:33;;;;;;;0.30;0.20;;;;;;;8.50;79.81;100826.97;5067993;28;20443;-56
2021/04/02 07:12:01;;;;;;;0.30;0.20;;;;;;;8.48;79.00;100820.78;5065055;28;20465;-56
2021/04/02 07:14:30;;;;;;;0.30;0.20;;;;;;;8.27;79.95;100830.72;5060574;28;20536;-56
2021/04/02 07:16:57;;;;;;;0.30;0.20;;;;;;;8.55;78.69;100833.09;5058487;28;20455;-56
2021/04/02 07:19:25;;;;;;;0.30;0.20;;;;;;;8.69;78.71;100841.75;5065736;28;20894;-56
2021/04/02 07:21:52;;;;;;;0.30;0.20;;;;;;;8.53;78.58;100845.47;5062577;28;20839;-56
2021/04/02 07:24:19;;;;;;;0.30;0.20;;;;;;;8.60;78.49;100842.72;5061365;28;20954;-55
2021/04/02 07:26:47;;;;;;;2.37;1.33;;;;;;;8.73;77.15;100839.94;5061761;28;20459;-56
2021/04/02 07:29:15;;;;;;;0.83;0.83;;;;;;;8.54;77.83;100844.59;5067256;28;20461;-56
2021/04/02 07:31:42;;;;;;;0.30;0.20;;;;;;;8.63;78.06;100849.75;5065948;28;21019;-56
2021/04/02 07:34:09;;;;;;;0.30;0.20;;;;;;;8.77;77.23;100850.50;5060679;28;20865;-56
2021/04/02 07:36:35;;;;;;;0.30;0.20;;;;;;;8.96;76.68;100847.59;5061824;28;20450;-56
2021/04/02 07:39:06;;;;;;;0.60;0.60;;;;;;;8.93;76.65;100852.97;5066459;28;20447;-56
2021/04/02 07:41:45;;;;;;;0.30;0.20;;;;;;;9.25;75.64;100836.59;5068066;28;20912;-56
2021/04/02 07:44:16;;;;;;;0.30;0.20;;;;;;;9.10;75.62;100843.88;5061421;28;20446;-56
2021/04/02 07:47:06;;;;;;;0.30;0.20;;;;;;;9.21;74.36;100849.03;5060894;28;20508;-56
2021/04/02 07:49:37;;;;;;;0.30;0.20;;;;;;;9.18;74.56;100849.06;5061559;28;20447;-56
2021/04/02 07:52:04;;;;;;;0.30;0.20;;;;;;;9.24;75.08;100845.44;5067454;28;20466;-56
2021/04/02 07:54:41;;;;;;;0.30;0.20;;;;;;;9.28;73.68;100840.06;5067064;28;20453;-56
2021/04/02 07:57:10;;;;;;;0.30;0.20;;;;;;;9.37;74.34;100845.25;5061946;28;20922;-56
2021/04/02 07:59:47;;;;;;;0.30;0.20;;;;;;;9.20;74.11;100847.28;5060295;28;20446;-56
2021/04/02 08:02:27;;;;;;;0.40;0.40;;;;;;;9.32;74.56;100843.56;5063334;28;20986;-56
2021/04/02 08:04:57;;;;;;;0.40;0.40;;;;;;;9.23;74.42;100844.56;5067027;28;20450;-56
2021/04/02 08:07:36;;;;;;;1.07;1.07;;;;;;;9.60;73.63;100846.69;5066414;28;20929;-56
2021/04/02 08:10:07;;;;;;;0.30;0.20;;;;;;;9.25;74.39;100844.56;5065321;28;20923;-56
2021/04/02 08:12:35;;;;;;;0.30;0.20;;;;;;;9.05;74.20;100851.03;5067852;28;20917;-56
2021/04/02 08:15:06;;;;;;;0.30;0.20;;;;;;;8.90;75.65;100845.88;5062895;28;20442;-56
2021/04/02 08:17:33;;;;;;;0.30;0.20;;;;;;;8.85;75.89;100843.31;5060604;28;20865;-56
2021/04/02 08:20:09;;;;;;;0.30;0.20;;;;;;;9.10;75.69;100848.31;5063292;28;20450;-56
2021/04/02 08:22:37;;;;;;;0.30;0.20;;;;;;;9.22;74.69;100853.44;5066179;28;20886;-56
2021/04/02 08:25:09;;;;;;;0.30;0.20;;;;;;;9.22;73.84;100850.78;5065455;28;20446;-56
2021/04/02 08:27:35;;;;;;;1.90;0.93;;;;;;;9.34;74.41;100852.38;5060677;28;20445;-56
2021/04/02 08:30:04;;;;;;;0.30;0.20;;;;;;;9.16;73.36;100854.38;5061009;28;20939;-56
2021/04/02 08:32:36;;;;;;;0.30;0.30;;;;;;;9.11;74.69;100853.56;5046418;28;20458;-56
2021/04/02 08:35:04;;;;;;;1.63;0.60;;;;;;;9.10;74.48;100870.38;5059794;28;20492;-56
2021/04/02 08:37:30;;;;;;;0.30;0.20;;;;;;;9.46;74.27;100857.53;5065760;28;20451;-56
2021/04/02 08:39:58;;;;;;;0.40;0.40;;;;;;;9.21;75.72;100859.66;5053913;28;20447;-56
2021/04/02 08:42:29;;;;;;;0.30;0.20;;;;;;;8.91;74.23;100866.22;5064857;28;20499;-56
2021/04/02 08:44:55;;;;;;;0.30;0.20;;;;;;;9.32;74.49;100854.16;5054353;28;20442;-56
2021/04/02 08:47:22;;;;;;;0.30;0.20;;;;;;;9.54;73.72;100855.59;5068410;28;20469;-56
2021/04/02 08:49:53;;;;;;;0.30;0.20;;;;;;;9.56;73.10;100858.25;5058716;28;20450;-56
2021/04/02 08:52:24;;;;;;;0.30;0.20;;;;;;;9.70;73.17;100856.25;5063709;28;20471;-56
2021/04/02 08:54:53;;;;;;;1.63;1.63;;;;;;;9.52;73.28;100857.41;5062520;28;20451;-56
2021/04/02 08:57:23;;;;;;;0.30;0.20;;;;;;;9.68;71.88;100853.63;5062518;28;20468;-56
2021/04/02 08:59:49;;;;;;;0.30;0.30;;;;;;;9.76;73.38;100857.03;5059261;28;20512;-56
2021/04/02 09:02:16;;;;;;;0.30;0.20;;;;;;;9.70;72.99;100857.13;5061154;28;20982;-56
2021/04/02 09:04:44;;;;;;;0.30;0.20;;;;;;;9.80;72.40;100864.03;5064793;28;20500;-56
2021/04/02 09:07:11;;;;;;;0.30;0.20;;;;;;;9.83;71.44;100859.59;5064023;28;20457;-56
2021/04/02 09:09:40;;;;;;;0.30;0.20;;;;;;;10.01;69.02;100854.84;5058886;28;20860;-56
2021/04/02 09:12:10;;;;;;;0.30;0.20;;;;;;;9.76;69.75;100854.38;5060169;28;20462;-56
2021/04/02 09:14:42;;;;;;;0.40;0.40;;;;;;;9.74;70.77;100856.19;5065993;28;20504;-56
2021/04/02 09:17:14;;;;;;;0.30;0.20;;;;;;;9.85;71.64;100858.66;5066813;28;20441;-56
2021/04/02 09:19:41;;;;;;;0.30;0.20;;;;;;;10.08;71.45;100853.84;5061490;28;20454;-56
2021/04/02 09:22:08;;;;;;;0.30;0.20;;;;;;;10.04;69.50;100857.47;5062946;28;20490;-56
2021/04/02 09:24:35;;;;;;;0.40;0.20;;;;;;;10.31;70.10;100856.13;5066261;28;20466;-56
2021/04/02 09:27:16;;;;;;;0.30;0.20;;;;;;;9.95;69.84;100867.34;5062577;28;20455;-56
2021/04/02 09:29:47;;;;;;;0.30;0.30;;;;;;;9.97;71.64;100855.78;5066122;28;20958;-56
2021/04/02 09:32:14;;;;;;;0.30;0.20;;;;;;;9.78;70.51;100862.31;5069472;28;20845;-56
2021/04/02 09:34:41;;;;;;;0.30;0.20;;;;;;;9.63;71.33;100857.25;5067190;28;20450;-56
2021/04/02 09:37:07;;;;;;;0.30;0.20;;;;;;;9.91;71.05;100857.69;5062738;28;20454;-56
2021/04/02 09:39:36;;;;;;;0.30;0.20;;;;;;;9.91;71.42;100857.69;5075977;28;20487;-56
2021/04/02 09:42:04;;;;;;;0.30;0.20;;;;;;;10.00;71.20;100857.50;5071141;28;20498;-56
2021/04/02 09:44:33;;;;;;;0.30;0.20;;;;;;;9.94;70.77;100860.28;5067730;28;20942;-56
2021/04/02 09:47:07;;;;;;;0.30;0.20;;;;;;;9.85;71.39;100861.31;5071899;28;20542;-56
2021/04/02 09:49:35;;;;;;;0.30;0.20;;;;;;;9.97;70.14;100852.25;5063101;28;20455;-56
2021/04/02 09:52:03;;;;;;;0.30;0.20;;;;;;;10.05;69.77;100858.34;5069382;28;20528;-56
2021/04/02 09:54:31;;;;;;;0.30;0.20;;;;;;;10.24;68.76;100854.47;5069218;28;20529;-56
2021/04/02 09:57:03;;;;;;;0.30;0.20;;;;;;;10.22;68.82;100852.75;5061890;28;20503;-56
2021/04/02 09:59:29;;;;;;;0.30;0.20;;;;;;;10.07;69.44;100859.16;5062202;28;20446;-56
2021/04/02 10:01:56;;;;;;;0.60;0.60;;;;;;;9.97;68.62;100852.25;5066761;28;20498;-56
2021/04/02 10:04:23;;;;;;;0.30;0.20;;;;;;;9.95;70.83;100856.72;5069437;28;20442;-56
2021/04/02 10:06:49;;;;;;;0.30;0.20;;;;;;;10.15;69.38;100853.75;5063420;28;20453;-56
2021/04/02 10:09:16;;;;;;;0.30;0.20;;;;;;;10.16;68.78;100851.06;5061327;28;20450;-56
2021/04/02 10:11:45;;;;;;;0.30;0.20;;;;;;;10.22;68.78;100843.00;5067556;28;20802;-56
2021/04/02 10:14:16;;;;;;;0.30;0.20;;;;;;;10.20;69.31;100854.53;5069034;28;20452;-55
2021/04/02 10:16:45;;;;;;;0.30;0.20;;;;;;;10.08;69.29;100848.53;5064607;28;20476;-55
2021/04/02 10:19:12;;;;;;;0.30;0.20;;;;;;;10.16;69.07;100844.88;5062636;28;20470;-55
2021/04/02 10:21:38;;;;;;;0.30;0.20;;;;;;;10.25;68.00;100845.59;5064438;28;21033;-56
2021/04/02 10:24:06;;;;;;;0.30;0.20;;;;;;;10.46;68.17;100832.81;5061138;28;20493;-55
2021/04/02 10:26:32;;;;;;;0.30;0.20;;;;;;;10.51;67.87;100845.09;5064171;28;20813;-56
2021/04/02 10:28:59;;;;;;;0.40;0.30;;;;;;;10.32;68.63;100836.63;5068273;28;20457;-56
2021/04/02 10:31:25;;;;;;;0.30;0.20;;;;;;;10.10;69.05;100836.09;5064691;28;20473;-56
2021/04/02 10:33:51;;;;;;;0.30;0.20;;;;;;;10.32;68.63;100835.75;5061206;28;20469;-56
2021/04/02 10:36:17;;;;;;;0.30;0.20;;;;;;;10.19;69.70;100834.19;5063978;28;20446;-56
2021/04/02 10:38:44;;;;;;;1.10;0.97;;;;;;;10.18;69.19;100833.31;5068529;28;20494;-56
2021/04/02 10:41:10;;;;;;;0.30;0.20;;;;;;;10.50;69.36;100826.53;5065293;28;20454;-55
2021/04/02 10:43:36;;;;;;;0.30;0.20;;;;;;;10.48;68.35;100821.25;5061011;28;20473;-56
2021/04/02 10:46:03;;;;;;;0.30;0.20;;;;;;;10.60;68.94;100823.66;5064212;28;20447;-56
2021/04/02 10:48:29;;;;;;;0.30;0.20;;;;;;;10.82;66.78;100816.09;5068735;28;20501;-55
2021/04/02 10:50:56;;;;;;;0.30;0.20;;;;;;;11.02;66.17;100809.50;5065334;28;20480;-56
2021/04/02 10:53:24;;;;;;;0.30;0.20;;;;;;;10.94;66.38;100805.19;5061042;28;20492;-55
2021/04/02 10:55:50;;;;;;;0.30;0.20;;;;;;;10.87;65.08;100813.38;5064054;28;20505;-56
2021/04/02 10:58:16;;;;;;;0.30;0.20;;;;;;;10.86;66.25;100799.19;5067221;28;20853;-55
2021/04/02 11:00:42;;;;;;;0.30;0.20;;;;;;;11.31;65.41;100808.84;5065404;28;20446;-55
2021/04/02 11:03:09;;;;;;;0.30;0.20;;;;;;;11.23;64.79;100806.34;5061570;28;21081;-55
2021/04/02 11:05:36;;;;;;;0.33;0.23;;;;;;;11.09;64.38;100811.09;5062625;28;20458;-55
2021/04/02 11:08:03;;;;;;;0.30;0.20;;;;;;;11.11;64.17;100812.84;5068067;28;20458;-56
2021/04/02 11:10:29;;;;;;;0.37;0.27;;;;;;;10.76;64.68;100794.97;5065607;28;20453;-55
2021/04/02 11:12:56;;;;;;;0.30;0.20;;;;;;;10.75;64.62;100801.19;5060658;28;20522;-56
2021/04/02 11:15:22;;;;;;;0.40;0.30;;;;;;;11.11;65.64;100793.34;5062757;28;20861;-56
2021/04/02 11:17:49;;;;;;;0.30;0.20;;;;;;;11.19;65.09;100789.56;5067167;28;20458;-56
2021/04/02 11:20:18;;;;;;;0.30;0.20;;;;;;;11.63;63.81;100790.28;5065686;28;20816;-56
2021/04/02 11:22:44;;;;;;;0.40;0.30;;;;;;;11.64;64.04;100792.03;5057231;28;20607;-56
2021/04/02 11:25:12;;;;;;;0.97;0.60;;;;;;;11.68;63.16;100784.88;5065975;28;20449;-56
2021/04/02 11:27:39;;;;;;;0.30;0.20;;;;;;;11.70;63.96;100788.38;5060372;28;20457;-56
2021/04/02 11:30:09;;;;;;;0.40;0.33;;;;;;;12.19;62.56;100779.09;5061342;28;20458;-56
2021/04/02 11:32:35;;;;;;;0.30;0.20;;;;;;;12.26;63.05;100773.56;5066820;28;20471;-56
2021/04/02 11:35:02;;;;;;;0.30;0.20;;;;;;;11.68;62.03;100784.88;5066963;28;20450;-56
2021/04/02 11:37:28;;;;;;;0.30;0.20;;;;;;;11.66;62.72;100784.91;5060616;28;20446;-56
2021/04/02 11:39:54;;;;;;;0.30;0.20;;;;;;;12.00;64.02;100794.72;5060820;28;20443;-56